sensor_id;sensor_type;location;lat;lon;timestamp;temperature;humidity
43842;DHT22;29495;49.970;20.842;2022-12-16T00:01:33;-0.70;99.90
43842;DHT22;29495;49.970;20.842;2022-12-16T00:03:59;-0.70;99.90
43842;DHT22;29495;49.970;20.842;2022-12-16T00:06:29;-0.60;99.90
43842;DHT22;29495;49.970;20.842;2022-12-16T00:08:55;-0.60;99.90
43842;DHT22;29495;49.970;20.842;2022-12-16T00:11:21;-0.70;99.90
43842;DHT22;29495;49.970;20.842;2022-12-16T00:13:57;-0.60;99.90
43842;DHT22;29495;49.970;20.842;2022-12-16T00:16:26;-0.60;99.90
43842;DHT22;29495;49.970;20.842;2022-12-16T00:19:00;-0.60;99.90
43842;DHT22;29495;49.970;20.842;2022-12-16T00:21:26;-0.60;99.90
43842;DHT22;29495;49.970;20.842;2022-12-16T00:23:57;-0.60;99.90
43842;DHT22;29495;49.970;20.842;2022-12-16T00:26:24;-0.60;99.90
43842;DHT22;29495;49.970;20.842;2022-12-16T00:28:50;-0.50;99.90
43842;DHT22;29495;49.970;20.842;2022-12-16T00:31:16;-0.50;99.90
43842;DHT22;29495;49.970;20.842;2022-12-16T00:34:01;-0.50;99.90
43842;DHT22;29495;49.970;20.842;2022-12-16T00:41:41;-0.40;99.90
43842;DHT22;29495;49.970;20.842;2022-12-16T00:51:42;-0.40;99.90
43842;DHT22;29495;49.970;20.842;2022-12-16T00:54:21;-0.40;99.90
43842;DHT22;29495;49.970;20.842;2022-12-16T00:57:13;-0.50;99.90
43842;DHT22;29495;49.970;20.842;2022-12-16T00:59:43;-0.40;99.90
43842;DHT22;29495;49.970;20.842;2022-12-16T01:07:07;-0.50;99.90
43842;DHT22;29495;49.970;20.842;2022-12-16T01:09:41;-0.50;99.90
43842;DHT22;29495;49.970;20.842;2022-12-16T01:12:28;-0.60;99.90
43842;DHT22;29495;49.970;20.842;2022-12-16T01:15:15;-0.60;99.90
43842;DHT22;29495;49.970;20.842;2022-12-16T01:17:41;-0.70;99.90
43842;DHT22;29495;49.970;20.842;2022-12-16T01:20:08;-0.60;99.90
43842;DHT22;29495;49.970;20.842;2022-12-16T01:22:36;-0.50;99.90
43842;DHT22;29495;49.970;20.842;2022-12-16T01:25:13;-0.50;99.90
43842;DHT22;29495;49.970;20.842;2022-12-16T01:27:40;-0.50;99.90
43842;DHT22;29495;49.970;20.842;2022-12-16T01:30:24;-0.50;99.90
43842;DHT22;29495;49.970;20.842;2022-12-16T01:33:26;-0.50;99.90
43842;DHT22;29495;49.970;20.842;2022-12-16T01:41:23;-0.60;99.90
43842;DHT22;29495;49.970;20.842;2022-12-16T01:54:24;-0.80;99.90
43842;DHT22;29495;49.970;20.842;2022-12-16T01:57:24;-0.80;99.90
43842;DHT22;29495;49.970;20.842;2022-12-16T03:53:19;0.00;99.90
43842;DHT22;29495;49.970;20.842;2022-12-16T03:56:16;0.00;99.90
43842;DHT22;29495;49.970;20.842;2022-12-16T03:59:16;-0.10;99.90
43842;DHT22;29495;49.970;20.842;2022-12-16T04:01:49;-0.10;99.90
43842;DHT22;29495;49.970;20.842;2022-12-16T04:08:35;0.00;99.90
43842;DHT22;29495;49.970;20.842;2022-12-16T04:11:02;-0.10;99.90
43842;DHT22;29495;49.970;20.842;2022-12-16T04:13:46;-0.10;99.90
43842;DHT22;29495;49.970;20.842;2022-12-16T04:16:31;-0.10;99.90
43842;DHT22;29495;49.970;20.842;2022-12-16T04:19:21;-0.10;99.90
43842;DHT22;29495;49.970;20.842;2022-12-16T04:22:20;-0.20;99.90
43842;DHT22;29495;49.970;20.842;2022-12-16T04:25:15;-0.20;99.90
43842;DHT22;29495;49.970;20.842;2022-12-16T04:27:41;-0.20;99.90
43842;DHT22;29495;49.970;20.842;2022-12-16T04:30:16;-0.10;99.90
43842;DHT22;29495;49.970;20.842;2022-12-16T04:33:03;0.00;99.90
43842;DHT22;29495;49.970;20.842;2022-12-16T04:35:49;0.00;99.90
43842;DHT22;29495;49.970;20.842;2022-12-16T04:38:33;0.00;99.90
43842;DHT22;29495;49.970;20.842;2022-12-16T04:41:18;0.00;99.90
43842;DHT22;29495;49.970;20.842;2022-12-16T04:44:03;0.00;99.90
43842;DHT22;29495;49.970;20.842;2022-12-16T04:46:48;0.10;99.90
43842;DHT22;29495;49.970;20.842;2022-12-16T04:49:32;0.10;99.90
43842;DHT22;29495;49.970;20.842;2022-12-16T04:52:17;0.10;99.90
43842;DHT22;29495;49.970;20.842;2022-12-16T04:55:02;0.10;99.90
43842;DHT22;29495;49.970;20.842;2022-12-16T04:57:56;0.20;99.90
43842;DHT22;29495;49.970;20.842;2022-12-16T05:00:41;0.20;99.90
43842;DHT22;29495;49.970;20.842;2022-12-16T05:03:27;0.20;99.90
43842;DHT22;29495;49.970;20.842;2022-12-16T05:07:03;0.20;99.90
43842;DHT22;29495;49.970;20.842;2022-12-16T05:10:12;0.30;99.90
43842;DHT22;29495;49.970;20.842;2022-12-16T05:13:05;0.20;99.90
43842;DHT22;29495;49.970;20.842;2022-12-16T05:16:03;0.20;99.90
43842;DHT22;29495;49.970;20.842;2022-12-16T05:18:59;0.30;99.90
43842;DHT22;29495;49.970;20.842;2022-12-16T05:22:10;0.30;99.90
43842;DHT22;29495;49.970;20.842;2022-12-16T05:25:16;0.30;99.90
43842;DHT22;29495;49.970;20.842;2022-12-16T05:28:27;0.40;99.90
43842;DHT22;29495;49.970;20.842;2022-12-16T05:31:11;0.40;99.90
43842;DHT22;29495;49.970;20.842;2022-12-16T05:33:56;0.50;99.90
43842;DHT22;29495;49.970;20.842;2022-12-16T05:36:41;0.50;99.90
43842;DHT22;29495;49.970;20.842;2022-12-16T05:39:25;0.50;99.90
43842;DHT22;29495;49.970;20.842;2022-12-16T05:42:10;0.40;99.90
43842;DHT22;29495;49.970;20.842;2022-12-16T05:44:54;0.50;99.90
43842;DHT22;29495;49.970;20.842;2022-12-16T05:47:39;0.50;99.90
43842;DHT22;29495;49.970;20.842;2022-12-16T05:50:24;0.60;99.90
43842;DHT22;29495;49.970;20.842;2022-12-16T05:53:08;0.60;99.90
43842;DHT22;29495;49.970;20.842;2022-12-16T05:55:53;0.70;99.90
43842;DHT22;29495;49.970;20.842;2022-12-16T05:58:38;0.70;99.90
43842;DHT22;29495;49.970;20.842;2022-12-16T06:01:22;0.60;99.90
43842;DHT22;29495;49.970;20.842;2022-12-16T06:04:07;0.70;99.90
43842;DHT22;29495;49.970;20.842;2022-12-16T06:06:52;0.60;99.90
43842;DHT22;29495;49.970;20.842;2022-12-16T06:09:36;0.60;99.90
43842;DHT22;29495;49.970;20.842;2022-12-16T06:12:23;0.70;99.90
43842;DHT22;29495;49.970;20.842;2022-12-16T06:15:08;0.70;99.90
43842;DHT22;29495;49.970;20.842;2022-12-16T06:17:53;0.70;99.90
43842;DHT22;29495;49.970;20.842;2022-12-16T06:20:45;0.80;99.90
43842;DHT22;29495;49.970;20.842;2022-12-16T06:23:47;0.80;99.90
43842;DHT22;29495;49.970;20.842;2022-12-16T06:26:36;0.80;99.90
43842;DHT22;29495;49.970;20.842;2022-12-16T06:29:28;0.80;99.90
43842;DHT22;29495;49.970;20.842;2022-12-16T06:32:15;0.80;99.90
43842;DHT22;29495;49.970;20.842;2022-12-16T06:35:04;0.80;99.90
43842;DHT22;29495;49.970;20.842;2022-12-16T06:37:52;0.70;99.90
43842;DHT22;29495;49.970;20.842;2022-12-16T06:40:39;0.70;99.90
43842;DHT22;29495;49.970;20.842;2022-12-16T06:43:24;0.80;99.90
43842;DHT22;29495;49.970;20.842;2022-12-16T06:46:16;0.80;99.90
43842;DHT22;29495;49.970;20.842;2022-12-16T06:49:12;0.70;99.90
43842;DHT22;29495;49.970;20.842;2022-12-16T08:52:30;1.60;99.90
43842;DHT22;29495;49.970;20.842;2022-12-16T08:55:37;1.60;99.90
43842;DHT22;29495;49.970;20.842;2022-12-16T08:58:31;1.70;99.90
43842;DHT22;29495;49.970;20.842;2022-12-16T09:01:16;1.70;99.90
43842;DHT22;29495;49.970;20.842;2022-12-16T09:08:33;1.80;99.90
43842;DHT22;29495;49.970;20.842;2022-12-16T09:16:08;1.80;99.90
43842;DHT22;29495;49.970;20.842;2022-12-16T11:45:55;1.70;99.90
43842;DHT22;29495;49.970;20.842;2022-12-16T11:48:46;1.80;99.90
43842;DHT22;29495;49.970;20.842;2022-12-16T11:51:32;1.90;99.90
43842;DHT22;29495;49.970;20.842;2022-12-16T11:54:28;1.90;99.90
43842;DHT22;29495;49.970;20.842;2022-12-16T11:57:45;1.80;99.90
43842;DHT22;29495;49.970;20.842;2022-12-16T12:00:32;1.70;99.90
43842;DHT22;29495;49.970;20.842;2022-12-16T12:03:22;1.60;99.90
43842;DHT22;29495;49.970;20.842;2022-12-16T12:09:40;1.50;99.90
43842;DHT22;29495;49.970;20.842;2022-12-16T12:12:55;1.50;99.90
43842;DHT22;29495;49.970;20.842;2022-12-16T12:15:53;1.50;99.90
43842;DHT22;29495;49.970;20.842;2022-12-16T12:19:02;1.50;99.90
43842;DHT22;29495;49.970;20.842;2022-12-16T12:22:06;1.50;99.90
43842;DHT22;29495;49.970;20.842;2022-12-16T13:33:33;1.00;99.90
43842;DHT22;29495;49.970;20.842;2022-12-16T13:36:32;1.00;99.90
43842;DHT22;29495;49.970;20.842;2022-12-16T13:39:38;1.00;99.90
43842;DHT22;29495;49.970;20.842;2022-12-16T13:45:35;1.00;99.90
43842;DHT22;29495;49.970;20.842;2022-12-16T13:54:32;1.00;99.90
43842;DHT22;29495;49.970;20.842;2022-12-16T13:57:21;1.00;99.90
43842;DHT22;29495;49.970;20.842;2022-12-16T14:00:19;1.00;99.90
43842;DHT22;29495;49.970;20.842;2022-12-16T14:03:17;1.00;99.90
43842;DHT22;29495;49.970;20.842;2022-12-16T14:06:05;1.00;99.90
43842;DHT22;29495;49.970;20.842;2022-12-16T14:09:03;0.90;99.90
43842;DHT22;29495;49.970;20.842;2022-12-16T14:12:01;0.80;99.90
43842;DHT22;29495;49.970;20.842;2022-12-16T14:30:11;0.50;99.90
43842;DHT22;29495;49.970;20.842;2022-12-16T14:37:50;0.50;99.90
43842;DHT22;29495;49.970;20.842;2022-12-16T14:41:20;0.50;99.90
43842;DHT22;29495;49.970;20.842;2022-12-16T15:06:56;0.40;99.90
43842;DHT22;29495;49.970;20.842;2022-12-16T15:09:59;0.30;99.90
43842;DHT22;29495;49.970;20.842;2022-12-16T15:12:54;0.40;99.90
43842;DHT22;29495;49.970;20.842;2022-12-16T15:15:53;0.40;99.90
43842;DHT22;29495;49.970;20.842;2022-12-16T15:18:49;0.30;99.90
43842;DHT22;29495;49.970;20.842;2022-12-16T15:22:08;0.20;99.90
43842;DHT22;29495;49.970;20.842;2022-12-16T15:25:23;0.20;99.90
43842;DHT22;29495;49.970;20.842;2022-12-16T15:28:41;0.10;99.90
43842;DHT22;29495;49.970;20.842;2022-12-16T15:31:37;0.20;99.90
43842;DHT22;29495;49.970;20.842;2022-12-16T15:34:38;0.20;99.90
43842;DHT22;29495;49.970;20.842;2022-12-16T15:37:38;0.20;99.90
43842;DHT22;29495;49.970;20.842;2022-12-16T15:40:30;0.20;99.90
43842;DHT22;29495;49.970;20.842;2022-12-16T15:43:32;0.10;99.90
43842;DHT22;29495;49.970;20.842;2022-12-16T15:49:02;0.20;99.90
43842;DHT22;29495;49.970;20.842;2022-12-16T15:51:48;0.20;99.90
43842;DHT22;29495;49.970;20.842;2022-12-16T15:54:52;0.20;99.90
43842;DHT22;29495;49.970;20.842;2022-12-16T15:57:53;0.10;99.90
43842;DHT22;29495;49.970;20.842;2022-12-16T16:00:38;0.00;99.90
43842;DHT22;29495;49.970;20.842;2022-12-16T16:03:25;0.00;99.90
43842;DHT22;29495;49.970;20.842;2022-12-16T16:06:24;0.10;99.90
43842;DHT22;29495;49.970;20.842;2022-12-16T16:09:28;0.10;99.90
43842;DHT22;29495;49.970;20.842;2022-12-16T16:12:15;0.10;99.90
43842;DHT22;29495;49.970;20.842;2022-12-16T16:15:00;0.00;99.90
43842;DHT22;29495;49.970;20.842;2022-12-16T16:18:04;0.00;99.90
43842;DHT22;29495;49.970;20.842;2022-12-16T16:20:54;0.00;99.90
43842;DHT22;29495;49.970;20.842;2022-12-16T16:23:39;0.00;99.90
43842;DHT22;29495;49.970;20.842;2022-12-16T16:26:26;0.00;99.90
43842;DHT22;29495;49.970;20.842;2022-12-16T16:29:12;-0.10;99.90
43842;DHT22;29495;49.970;20.842;2022-12-16T16:31:56;0.00;99.90
43842;DHT22;29495;49.970;20.842;2022-12-16T16:34:41;0.10;99.90
43842;DHT22;29495;49.970;20.842;2022-12-16T16:37:25;0.10;99.90
43842;DHT22;29495;49.970;20.842;2022-12-16T16:40:25;0.10;99.90
43842;DHT22;29495;49.970;20.842;2022-12-16T16:43:11;0.10;99.90
43842;DHT22;29495;49.970;20.842;2022-12-16T16:45:56;0.20;99.90
43842;DHT22;29495;49.970;20.842;2022-12-16T16:48:41;0.20;99.90
43842;DHT22;29495;49.970;20.842;2022-12-16T16:51:26;0.20;99.90
43842;DHT22;29495;49.970;20.842;2022-12-16T16:54:12;0.20;99.90
43842;DHT22;29495;49.970;20.842;2022-12-16T16:56:59;0.10;99.90
43842;DHT22;29495;49.970;20.842;2022-12-16T16:59:44;0.10;99.90
43842;DHT22;29495;49.970;20.842;2022-12-16T17:02:29;0.00;99.90
43842;DHT22;29495;49.970;20.842;2022-12-16T17:05:13;0.00;99.90
43842;DHT22;29495;49.970;20.842;2022-12-16T17:07:58;-0.10;99.90
43842;DHT22;29495;49.970;20.842;2022-12-16T17:10:43;0.00;99.90
43842;DHT22;29495;49.970;20.842;2022-12-16T17:13:30;0.00;99.90
43842;DHT22;29495;49.970;20.842;2022-12-16T17:16:14;0.00;99.90
43842;DHT22;29495;49.970;20.842;2022-12-16T17:18:59;0.00;99.90
43842;DHT22;29495;49.970;20.842;2022-12-16T17:21:44;0.00;99.90
43842;DHT22;29495;49.970;20.842;2022-12-16T17:24:31;0.00;99.90
43842;DHT22;29495;49.970;20.842;2022-12-16T17:27:18;0.00;99.90
43842;DHT22;29495;49.970;20.842;2022-12-16T17:32:55;0.00;99.90
43842;DHT22;29495;49.970;20.842;2022-12-16T17:35:40;0.00;99.90
43842;DHT22;29495;49.970;20.842;2022-12-16T17:39:20;0.00;99.90
43842;DHT22;29495;49.970;20.842;2022-12-16T17:42:05;0.00;99.90
43842;DHT22;29495;49.970;20.842;2022-12-16T17:44:55;-0.10;99.90
43842;DHT22;29495;49.970;20.842;2022-12-16T17:47:44;0.00;99.90
43842;DHT22;29495;49.970;20.842;2022-12-16T17:50:33;-0.10;99.90
43842;DHT22;29495;49.970;20.842;2022-12-16T17:53:25;-0.10;99.90
43842;DHT22;29495;49.970;20.842;2022-12-16T17:56:23;-0.10;99.90
43842;DHT22;29495;49.970;20.842;2022-12-16T17:59:21;-0.20;99.90
43842;DHT22;29495;49.970;20.842;2022-12-16T18:26:04;-0.20;99.90
43842;DHT22;29495;49.970;20.842;2022-12-16T18:42:21;-0.20;99.90
43842;DHT22;29495;49.970;20.842;2022-12-16T18:50:37;-0.40;99.90
43842;DHT22;29495;49.970;20.842;2022-12-16T18:53:42;-0.40;99.90
43842;DHT22;29495;49.970;20.842;2022-12-16T18:56:30;-0.40;99.90
43842;DHT22;29495;49.970;20.842;2022-12-16T18:59:14;-0.40;99.90
43842;DHT22;29495;49.970;20.842;2022-12-16T19:02:02;-0.30;99.90
43842;DHT22;29495;49.970;20.842;2022-12-16T19:04:47;-0.50;99.90
43842;DHT22;29495;49.970;20.842;2022-12-16T19:07:32;-0.50;99.90
43842;DHT22;29495;49.970;20.842;2022-12-16T19:10:17;-0.50;99.90
43842;DHT22;29495;49.970;20.842;2022-12-16T19:13:01;-0.40;99.90
43842;DHT22;29495;49.970;20.842;2022-12-16T19:15:53;-0.50;99.90
43842;DHT22;29495;49.970;20.842;2022-12-16T19:18:43;-0.40;99.90
43842;DHT22;29495;49.970;20.842;2022-12-16T19:21:28;-0.50;99.90
43842;DHT22;29495;49.970;20.842;2022-12-16T19:24:12;-0.50;99.90
43842;DHT22;29495;49.970;20.842;2022-12-16T19:26:57;-0.50;99.90
43842;DHT22;29495;49.970;20.842;2022-12-16T19:29:42;-0.60;99.90
43842;DHT22;29495;49.970;20.842;2022-12-16T19:32:26;-0.60;99.90
43842;DHT22;29495;49.970;20.842;2022-12-16T19:35:12;-0.50;99.90
43842;DHT22;29495;49.970;20.842;2022-12-16T19:37:57;-0.50;99.90
43842;DHT22;29495;49.970;20.842;2022-12-16T19:40:51;-0.60;99.90
43842;DHT22;29495;49.970;20.842;2022-12-16T19:43:38;-0.50;99.90
43842;DHT22;29495;49.970;20.842;2022-12-16T19:46:22;-0.50;99.90
43842;DHT22;29495;49.970;20.842;2022-12-16T19:49:10;-0.60;99.90
43842;DHT22;29495;49.970;20.842;2022-12-16T19:51:57;-0.60;99.90
43842;DHT22;29495;49.970;20.842;2022-12-16T19:54:41;-0.50;99.90
43842;DHT22;29495;49.970;20.842;2022-12-16T19:57:26;-0.60;99.90
43842;DHT22;29495;49.970;20.842;2022-12-16T20:00:12;-0.60;99.90
43842;DHT22;29495;49.970;20.842;2022-12-16T20:02:57;-0.60;99.90
43842;DHT22;29495;49.970;20.842;2022-12-16T20:05:41;-0.60;99.90
43842;DHT22;29495;49.970;20.842;2022-12-16T20:08:28;-0.60;99.90
43842;DHT22;29495;49.970;20.842;2022-12-16T20:11:13;-0.70;99.90
43842;DHT22;29495;49.970;20.842;2022-12-16T20:13:58;-0.70;99.90
43842;DHT22;29495;49.970;20.842;2022-12-16T20:16:42;-0.70;99.90
43842;DHT22;29495;49.970;20.842;2022-12-16T20:19:27;-0.70;99.90
43842;DHT22;29495;49.970;20.842;2022-12-16T20:22:12;-0.70;99.90
43842;DHT22;29495;49.970;20.842;2022-12-16T20:24:57;-0.80;99.90
43842;DHT22;29495;49.970;20.842;2022-12-16T20:27:41;-0.80;99.90
43842;DHT22;29495;49.970;20.842;2022-12-16T20:30:26;-0.80;99.90
43842;DHT22;29495;49.970;20.842;2022-12-16T20:33:13;-0.80;99.90
43842;DHT22;29495;49.970;20.842;2022-12-16T20:36:00;-0.80;99.90
43842;DHT22;29495;49.970;20.842;2022-12-16T20:38:45;-0.70;99.90
43842;DHT22;29495;49.970;20.842;2022-12-16T20:41:33;-0.80;99.90
43842;DHT22;29495;49.970;20.842;2022-12-16T20:44:18;-0.80;99.90
43842;DHT22;29495;49.970;20.842;2022-12-16T20:47:02;-0.80;99.90
43842;DHT22;29495;49.970;20.842;2022-12-16T20:49:47;-0.80;99.90
43842;DHT22;29495;49.970;20.842;2022-12-16T20:52:32;-0.80;99.90
43842;DHT22;29495;49.970;20.842;2022-12-16T20:55:22;-0.80;99.90
43842;DHT22;29495;49.970;20.842;2022-12-16T20:58:23;-0.80;99.90
43842;DHT22;29495;49.970;20.842;2022-12-16T21:01:08;-0.80;99.90
43842;DHT22;29495;49.970;20.842;2022-12-16T21:03:53;-0.80;99.90
43842;DHT22;29495;49.970;20.842;2022-12-16T21:06:37;-0.80;99.90
43842;DHT22;29495;49.970;20.842;2022-12-16T21:09:22;-0.80;99.90
43842;DHT22;29495;49.970;20.842;2022-12-16T21:12:07;-0.90;99.90
43842;DHT22;29495;49.970;20.842;2022-12-16T21:14:51;-0.90;99.90
43842;DHT22;29495;49.970;20.842;2022-12-16T21:17:36;-0.80;99.90
43842;DHT22;29495;49.970;20.842;2022-12-16T21:20:24;-0.80;99.90
43842;DHT22;29495;49.970;20.842;2022-12-16T21:23:10;-0.90;99.90
43842;DHT22;29495;49.970;20.842;2022-12-16T21:26:01;-0.90;99.90
43842;DHT22;29495;49.970;20.842;2022-12-16T21:28:46;-0.90;99.90
43842;DHT22;29495;49.970;20.842;2022-12-16T21:31:31;-0.80;99.90
43842;DHT22;29495;49.970;20.842;2022-12-16T21:34:24;-0.90;99.90
43842;DHT22;29495;49.970;20.842;2022-12-16T21:37:10;-0.90;99.90
43842;DHT22;29495;49.970;20.842;2022-12-16T21:39:54;-0.90;99.90
43842;DHT22;29495;49.970;20.842;2022-12-16T21:42:39;-0.90;99.90
43842;DHT22;29495;49.970;20.842;2022-12-16T21:45:24;-0.90;99.90
43842;DHT22;29495;49.970;20.842;2022-12-16T21:48:10;-1.00;99.90
43842;DHT22;29495;49.970;20.842;2022-12-16T21:50:54;-1.00;99.90
43842;DHT22;29495;49.970;20.842;2022-12-16T21:53:42;-1.00;99.90
43842;DHT22;29495;49.970;20.842;2022-12-16T21:56:45;-1.10;99.90
43842;DHT22;29495;49.970;20.842;2022-12-16T21:59:30;-1.00;99.90
43842;DHT22;29495;49.970;20.842;2022-12-16T22:02:15;-1.00;99.90
43842;DHT22;29495;49.970;20.842;2022-12-16T22:04:59;-1.00;99.90
43842;DHT22;29495;49.970;20.842;2022-12-16T22:07:47;-0.90;99.90
43842;DHT22;29495;49.970;20.842;2022-12-16T22:10:31;-1.00;99.90
43842;DHT22;29495;49.970;20.842;2022-12-16T22:13:16;-1.00;99.90
43842;DHT22;29495;49.970;20.842;2022-12-16T22:16:01;-1.00;99.90
43842;DHT22;29495;49.970;20.842;2022-12-16T22:18:48;-0.90;99.90
43842;DHT22;29495;49.970;20.842;2022-12-16T22:21:36;-1.00;99.90
43842;DHT22;29495;49.970;20.842;2022-12-16T22:24:21;-1.00;99.90
43842;DHT22;29495;49.970;20.842;2022-12-16T22:27:05;-1.10;99.90
43842;DHT22;29495;49.970;20.842;2022-12-16T22:29:50;-1.00;99.90
43842;DHT22;29495;49.970;20.842;2022-12-16T22:32:35;-1.00;99.90
43842;DHT22;29495;49.970;20.842;2022-12-16T22:35:20;-1.00;99.90
43842;DHT22;29495;49.970;20.842;2022-12-16T22:38:04;-1.00;99.90
43842;DHT22;29495;49.970;20.842;2022-12-16T22:40:55;-1.10;99.90
43842;DHT22;29495;49.970;20.842;2022-12-16T22:43:41;-1.20;99.90
43842;DHT22;29495;49.970;20.842;2022-12-16T22:46:25;-1.10;99.90
43842;DHT22;29495;49.970;20.842;2022-12-16T22:49:10;-1.10;99.90
43842;DHT22;29495;49.970;20.842;2022-12-16T22:52:01;-1.10;99.90
43842;DHT22;29495;49.970;20.842;2022-12-16T22:54:54;-1.10;99.90
43842;DHT22;29495;49.970;20.842;2022-12-16T22:57:39;-1.20;99.90
43842;DHT22;29495;49.970;20.842;2022-12-16T23:00:23;-1.20;99.90
43842;DHT22;29495;49.970;20.842;2022-12-16T23:03:16;-1.10;99.90
43842;DHT22;29495;49.970;20.842;2022-12-16T23:06:12;-1.20;99.90
43842;DHT22;29495;49.970;20.842;2022-12-16T23:09:04;-1.30;99.90
43842;DHT22;29495;49.970;20.842;2022-12-16T23:11:49;-1.30;99.90
43842;DHT22;29495;49.970;20.842;2022-12-16T23:14:34;-1.30;99.90
43842;DHT22;29495;49.970;20.842;2022-12-16T23:17:19;-1.30;99.90
43842;DHT22;29495;49.970;20.842;2022-12-16T23:20:07;-1.40;99.90
43842;DHT22;29495;49.970;20.842;2022-12-16T23:22:55;-1.30;99.90
43842;DHT22;29495;49.970;20.842;2022-12-16T23:25:40;-1.40;99.90
43842;DHT22;29495;49.970;20.842;2022-12-16T23:28:27;-1.30;99.90
43842;DHT22;29495;49.970;20.842;2022-12-16T23:31:12;-1.20;99.90
43842;DHT22;29495;49.970;20.842;2022-12-16T23:33:57;-1.20;99.90
43842;DHT22;29495;49.970;20.842;2022-12-16T23:36:42;-1.30;99.90
43842;DHT22;29495;49.970;20.842;2022-12-16T23:39:27;-1.30;99.90
43842;DHT22;29495;49.970;20.842;2022-12-16T23:42:11;-1.20;99.90
43842;DHT22;29495;49.970;20.842;2022-12-16T23:44:56;-1.20;99.90
43842;DHT22;29495;49.970;20.842;2022-12-16T23:47:40;-1.20;99.90
43842;DHT22;29495;49.970;20.842;2022-12-16T23:50:24;-1.20;99.90
43842;DHT22;29495;49.970;20.842;2022-12-16T23:53:10;-1.30;99.90
43842;DHT22;29495;49.970;20.842;2022-12-16T23:55:59;-1.20;99.90
43842;DHT22;29495;49.970;20.842;2022-12-16T23:58:47;-1.30;99.90
